Colin Jacob — ZCTC3 — position and weather

sailwx.info

Track history (hours):
 
Tides and Currents Weather Stations Pressure Air Temp Water Temp Dewpoint Dewpoint Depression Visibility Wind Speed Wind Dir Waves Ship Positions

Colin Jacob

Last reported at 2017-Sep-21 09:38 UTC. Time now 2017-Sep-21 12:30 UTC.
Position N 49°53' W 002°33'.

Length 228 m; draft 9.2 m.

Type: Tanker. MMSI: 319767000.

Date/timePositionNaut miles runAvg speedWind from/ knotsBaromVisibWave heightAir tempDewpointWater temp
2017-Sep-21 09:38N 49°53' W 002°33'215.0
2017-Sep-21 09:30N 49°53' W 002°36'714.8
2017-Sep-21 09:01N 49°51' W 002°47'1214.9
2017-Sep-21 08:12N 49°46' W 003°04'414.9
2017-Sep-21 07:57N 49°45' W 003°09'714.7
2017-Sep-21 07:30N 49°42' W 003°19'714.8
2017-Sep-21 07:00N 49°39' W 003°29'816.2
2017-Sep-21 06:31N 49°36' W 003°41'917.0
2017-Sep-21 06:00N 49°33' W 003°53'  
Track history (hours):
 
Tides and Currents Weather Stations Pressure Air Temp Water Temp Dewpoint Dewpoint Depression Visibility Wind Speed Wind Dir Waves Ship Positions

Colin Jacob

Last reported at 2017-Sep-21 09:38 UTC. Time now 2017-Sep-21 12:30 UTC.
Position N 49°53' W 002°33'.

Length 228 m; draft 9.2 m.

Type: Tanker. MMSI: 319767000.

Date/timePositionNaut miles runAvg speedWind from/ knotsBaromVisibWave heightAir tempDewpointWater temp
2017-Sep-21 09:38N 49°53' W 002°33'215.0
2017-Sep-21 09:30N 49°53' W 002°36'714.8
2017-Sep-21 09:01N 49°51' W 002°47'1214.9
2017-Sep-21 08:12N 49°46' W 003°04'414.9
2017-Sep-21 07:57N 49°45' W 003°09'714.7
2017-Sep-21 07:30N 49°42' W 003°19'714.8
2017-Sep-21 07:00N 49°39' W 003°29'816.2
2017-Sep-21 06:31N 49°36' W 003°41'917.0
2017-Sep-21 06:00N 49°33' W 003°53'  

Dump ship's entire track history